Time;durP1;ratioP1;P1;durP2;ratioP2;P2;SDS_P1;SDS_P2;PMS_P1;PMS_P2;Temp;Humidity;BMP_temperature;BMP_pressure;BME280_temperature;BME280_humidity;BME280_pressure;Samples;Min_cycle;Max_cycle;Signal;HPM_P1;HPM_P2
2022/07/29 00:04:59;;;;;;;6.57;0.32;;;21.40;83.70;;;;;;10306963;28;20057;-59
2022/07/29 00:10:03;;;;;;;2.45;0.17;;;21.30;83.20;;;;;;10283152;28;20050;-59
2022/07/29 00:15:05;;;;;;;6.05;0.40;;;21.30;83.30;;;;;;10303754;28;20050;-59
2022/07/29 00:20:08;;;;;;;2.58;0.30;;;21.40;82.70;;;;;;10290571;28;20061;-59
2022/07/29 00:25:09;;;;;;;1.35;0.30;;;21.50;82.30;;;;;;10280628;28;20086;-59
2022/07/29 00:30:12;;;;;;;2.83;0.50;;;21.50;83.20;;;;;;10296176;28;20046;-59
2022/07/29 00:40:34;;;;;;;2.80;0.30;;;21.70;81.40;;;;;;10290439;28;20389;-59
2022/07/29 00:45:35;;;;;;;4.65;0.30;;;21.80;81.50;;;;;;10296999;28;20100;-59
2022/07/29 00:50:38;;;;;;;2.17;0.47;;;21.80;82.10;;;;;;10298353;28;20502;-59
2022/07/29 00:55:40;;;;;;;2.65;0.30;;;21.70;71.80;;;;;;10291733;28;20058;-59
2022/07/29 01:00:42;;;;;;;1.30;0.30;;;21.70;71.20;;;;;;10279103;28;20532;-60
2022/07/29 01:05:46;;;;;;;3.17;0.40;;;21.80;70.90;;;;;;10295916;28;20073;-60
2022/07/29 01:10:52;;;;;;;2.53;0.40;;;21.90;71.20;;;;;;10244686;28;20046;-60
2022/07/29 01:15:59;;;;;;;6.57;0.63;;;21.90;71.50;;;;;;10258461;28;20055;-60
2022/07/29 01:21:43;;;;;;;3.03;0.43;;;21.90;71.50;;;;;;10258495;28;20145;-59
2022/07/29 01:26:58;;;;;;;0.93;0.30;;;21.90;73.10;;;;;;10258218;28;20560;-59
2022/07/29 01:32:13;;;;;;;3.50;0.60;;;21.90;73.20;;;;;;10257519;28;20062;-59
2022/07/29 01:37:39;;;;;;;3.75;0.40;;;21.80;72.60;;;;;;10254788;28;20892;-59
2022/07/29 01:42:49;;;;;;;1.27;0.40;;;21.70;73.50;;;;;;10237606;28;20055;-59
2022/07/29 01:48:08;;;;;;;1.30;0.30;;;21.50;75.20;;;;;;10248651;28;20055;-59
2022/07/29 01:53:12;;;;;;;2.17;0.40;;;21.30;76.80;;;;;;10257019;28;20043;-59
2022/07/29 01:58:17;;;;;;;1.90;0.35;;;21.00;79.30;;;;;;10254238;28;20087;-59
2022/07/29 02:03:22;;;;;;;1.33;0.40;;;20.90;80.70;;;;;;10242786;28;20061;-59
2022/07/29 02:08:24;;;;;;;6.85;0.50;;;20.70;81.10;;;;;;10261685;28;20074;-59
2022/07/29 02:13:28;;;;;;;2.80;0.40;;;20.60;82.40;;;;;;10264527;28;20042;-59
2022/07/29 02:18:31;;;;;;;8.27;0.73;;;20.50;83.50;;;;;;10261680;28;20043;-59
2022/07/29 02:23:37;;;;;;;2.72;0.40;;;20.40;84.40;;;;;;10264052;28;20521;-60
2022/07/29 02:28:56;;;;;;;1.30;0.40;;;20.40;85.00;;;;;;10263641;28;20074;-60
2022/07/29 02:33:59;;;;;;;0.73;0.30;;;20.40;85.50;;;;;;10264473;28;20043;-60
2022/07/29 02:39:03;;;;;;;1.67;0.40;;;20.30;86.40;;;;;;10266984;28;20047;-60
2022/07/29 02:44:18;;;;;;;1.40;0.45;;;20.20;87.30;;;;;;10259955;28;20063;-60
2022/07/29 02:49:48;;;;;;;2.53;0.60;;;20.30;88.10;;;;;;10265295;28;20063;-59
2022/07/29 02:55:07;;;;;;;1.05;0.40;;;20.30;89.10;;;;;;10264726;28;20050;-59
2022/07/29 03:00:10;;;;;;;0.60;0.40;;;20.10;89.90;;;;;;10270689;28;20109;-59
2022/07/29 03:05:19;;;;;;;4.13;0.40;;;20.10;90.80;;;;;;10261245;28;20043;-60
2022/07/29 03:10:21;;;;;;;5.90;0.60;;;20.10;91.70;;;;;;10259655;28;20506;-60
2022/07/29 03:15:24;;;;;;;1.80;0.50;;;19.90;92.40;;;;;;10238976;28;20050;-59
2022/07/29 03:20:26;;;;;;;2.50;0.45;;;19.90;93.20;;;;;;10265968;28;20058;-59
2022/07/29 03:25:28;;;;;;;1.10;0.30;;;19.80;94.10;;;;;;10273521;28;20050;-60
2022/07/29 03:30:30;;;;;;;1.45;0.50;;;19.70;94.50;;;;;;10269567;28;20050;-59
2022/07/29 03:35:32;;;;;;;1.73;0.93;;;19.60;95.40;;;;;;10262307;28;20454;-59
2022/07/29 03:40:39;;;;;;;3.90;0.38;;;19.50;96.50;;;;;;10253138;28;20509;-59
2022/07/29 03:45:44;;;;;;;5.43;0.70;;;19.40;98.00;;;;;;10255176;28;20066;-59
2022/07/29 03:50:46;;;;;;;3.60;0.60;;;19.40;99.20;;;;;;10261091;28;20363;-62
2022/07/29 03:55:53;;;;;;;2.08;0.45;;;19.30;99.90;;;;;;10267321;28;20063;-62
2022/07/29 04:00:55;;;;;;;1.17;0.50;;;19.30;99.90;;;;;;10247989;28;20043;-63
2022/07/29 04:06:08;;;;;;;1.65;0.50;;;19.20;99.90;;;;;;10271130;28;20042;-63
2022/07/29 04:11:09;;;;;;;3.92;0.50;;;19.10;99.90;;;;;;10269841;28;20338;-62
2022/07/29 04:16:11;;;;;;;2.72;0.50;;;19.00;99.90;;;;;;10251199;28;20070;-62
2022/07/29 04:21:13;;;;;;;0.93;0.40;;;18.80;99.90;;;;;;10264277;28;20038;-64
2022/07/29 04:26:15;;;;;;;4.25;0.30;;;18.80;99.90;;;;;;10243896;28;20054;-64
2022/07/29 04:31:17;;;;;;;2.60;0.80;;;18.70;99.90;;;;;;10248419;28;20051;-64
2022/07/29 04:36:25;;;;;;;3.05;0.70;;;18.70;99.60;;;;;;10260866;28;20055;-64
2022/07/29 04:41:30;;;;;;;1.50;0.47;;;18.70;99.70;;;;;;10241094;28;20051;-64
2022/07/29 04:46:34;;;;;;;4.72;0.32;;;18.70;99.90;;;;;;10254754;28;20141;-64
2022/07/29 04:51:36;;;;;;;3.38;0.40;;;18.70;99.80;;;;;;10230217;28;20521;-64
2022/07/29 04:56:38;;;;;;;4.47;0.47;;;18.70;99.90;;;;;;10254054;28;20544;-64
2022/07/29 05:01:39;;;;;;;3.88;0.45;;;18.70;99.90;;;;;;10240278;28;20410;-64
2022/07/29 05:06:41;;;;;;;2.80;0.50;;;18.60;99.90;;;;;;10262351;28;20073;-64
2022/07/29 05:11:43;;;;;;;4.72;0.50;;;18.60;99.80;;;;;;10257929;28;20051;-64
2022/07/29 05:16:44;;;;;;;8.40;0.75;;;18.60;99.90;;;;;;10259585;28;20849;-64
2022/07/29 05:21:46;;;;;;;3.58;0.55;;;18.50;99.90;;;;;;10262268;28;20053;-65
2022/07/29 05:26:48;;;;;;;2.22;0.80;;;18.40;99.90;;;;;;10256376;28;20055;-64
2022/07/29 05:31:51;;;;;;;2.35;1.08;;;18.40;99.90;;;;;;10254363;28;20055;-64
2022/07/29 05:36:53;;;;;;;4.18;0.52;;;18.50;99.90;;;;;;10261509;28;20042;-64
2022/07/29 05:41:55;;;;;;;4.05;0.60;;;18.50;99.90;;;;;;10260422;28;20047;-64
2022/07/29 05:46:56;;;;;;;2.80;0.50;;;18.60;99.90;;;;;;10266495;28;20484;-64
2022/07/29 05:51:58;;;;;;;3.03;0.80;;;18.70;99.90;;;;;;10254076;28;20101;-64
2022/07/29 05:56:59;;;;;;;3.28;0.50;;;18.70;99.90;;;;;;10265244;28;20108;-64
2022/07/29 06:02:01;;;;;;;2.38;0.60;;;18.90;99.90;;;;;;10264570;28;20062;-64
2022/07/29 06:07:03;;;;;;;0.73;0.40;;;19.10;99.90;;;;;;10273742;28;20109;-64
2022/07/29 06:12:05;;;;;;;5.30;1.25;;;19.20;99.90;;;;;;10304660;28;20051;-64
2022/07/29 06:17:07;;;;;;;2.15;0.50;;;19.30;99.90;;;;;;10300574;28;20057;-64
2022/07/29 06:22:09;;;;;;;1.30;0.60;;;19.40;99.90;;;;;;10304422;28;20395;-64
2022/07/29 06:27:11;;;;;;;3.88;0.50;;;19.60;99.90;;;;;;10300182;28;20051;-65
2022/07/29 06:32:13;;;;;;;1.85;0.45;;;19.80;99.90;;;;;;10282495;28;20394;-64
2022/07/29 06:37:14;;;;;;;2.38;0.55;;;20.00;99.90;;;;;;10297290;28;20057;-64
2022/07/29 06:42:16;;;;;;;1.35;0.50;;;20.00;99.90;;;;;;10292259;28;20039;-65
2022/07/29 06:47:18;;;;;;;2.05;0.50;;;20.20;99.90;;;;;;10304007;28;20046;-64
2022/07/29 06:52:20;;;;;;;1.17;0.57;;;20.40;99.90;;;;;;10306975;28;20464;-64
2022/07/29 06:57:22;;;;;;;3.30;0.60;;;20.60;99.50;;;;;;10279893;28;20046;-64
2022/07/29 07:02:23;;;;;;;4.35;0.95;;;20.80;99.50;;;;;;10305980;28;20108;-64
2022/07/29 07:07:25;;;;;;;4.00;0.60;;;20.90;99.00;;;;;;10292241;28;20712;-64
2022/07/29 07:12:27;;;;;;;1.30;0.40;;;21.00;99.20;;;;;;10281047;28;20054;-64
2022/07/29 07:17:29;;;;;;;1.60;0.60;;;21.20;99.70;;;;;;10291605;28;20512;-65
2022/07/29 07:22:31;;;;;;;0.90;0.50;;;21.20;98.90;;;;;;10295956;28;20058;-64
2022/07/29 07:27:39;;;;;;;2.67;0.73;;;21.20;98.30;;;;;;10286790;28;20050;-64
2022/07/29 07:32:41;;;;;;;3.90;0.60;;;21.40;98.30;;;;;;10301586;28;20068;-64
2022/07/29 07:37:43;;;;;;;1.00;0.70;;;21.40;98.60;;;;;;10315701;28;20484;-65
2022/07/29 07:42:44;;;;;;;2.60;0.45;;;21.60;97.60;;;;;;10296294;28;20054;-64
2022/07/29 07:47:46;;;;;;;1.38;0.40;;;21.70;96.90;;;;;;10307089;28;20050;-65
2022/07/29 07:52:54;;;;;;;1.63;0.57;;;21.90;97.10;;;;;;10304291;28;20062;-65
2022/07/29 07:57:56;;;;;;;2.67;0.52;;;22.10;96.70;;;;;;10305180;28;20059;-64
2022/07/29 08:02:58;;;;;;;3.60;0.40;;;22.40;96.40;;;;;;10299899;28;20054;-64
2022/07/29 08:07:59;;;;;;;2.17;0.55;;;22.50;95.00;;;;;;10307921;28;20125;-64
2022/07/29 08:13:05;;;;;;;2.88;0.50;;;22.70;94.70;;;;;;10309693;28;20390;-63
2022/07/29 08:18:07;;;;;;;3.00;0.40;;;22.90;94.60;;;;;;10306260;28;20050;-62
2022/07/29 08:23:09;;;;;;;1.73;0.50;;;23.20;94.00;;;;;;10297193;28;20069;-63
2022/07/29 08:28:11;;;;;;;4.05;0.60;;;23.30;94.00;;;;;;10305543;28;20046;-62
2022/07/29 08:33:13;;;;;;;2.45;0.52;;;23.50;93.30;;;;;;10306095;28;20068;-61
2022/07/29 08:38:14;;;;;;;7.28;0.50;;;23.70;92.80;;;;;;10291320;28;20054;-61
2022/07/29 08:43:16;;;;;;;2.85;0.60;;;23.90;92.40;;;;;;10276654;28;20050;-62
2022/07/29 08:48:20;;;;;;;6.72;0.52;;;24.00;91.10;;;;;;10294328;28;20050;-62
2022/07/29 08:53:26;;;;;;;0.70;0.50;;;24.10;91.30;;;;;;10298797;28;20050;-62
2022/07/29 08:58:33;;;;;;;1.08;0.70;;;24.30;90.70;;;;;;10311533;28;20058;-62
2022/07/29 09:03:39;;;;;;;1.60;0.40;;;24.40;89.80;;;;;;10307644;28;20046;-64
2022/07/29 09:08:41;;;;;;;1.75;0.65;;;24.60;90.80;;;;;;10301663;28;20132;-63
2022/07/29 09:13:44;;;;;;;2.97;0.50;;;24.70;91.20;;;;;;10304009;28;20121;-63
2022/07/29 09:18:46;;;;;;;2.10;0.55;;;24.80;90.70;;;;;;10296206;28;20157;-62
2022/07/29 09:24:06;;;;;;;8.55;0.50;;;25.00;90.30;;;;;;10291583;28;20056;-62
2022/07/29 09:29:14;;;;;;;6.25;0.60;;;25.10;87.60;;;;;;10290732;28;20047;-63
2022/07/29 09:34:24;;;;;;;6.22;0.68;;;25.20;89.50;;;;;;10288973;28;20047;-63
2022/07/29 09:39:34;;;;;;;1.92;0.60;;;25.30;87.70;;;;;;10284294;28;20054;-63
2022/07/29 09:44:50;;;;;;;1.42;0.50;;;25.60;88.50;;;;;;10285145;28;20058;-63
2022/07/29 09:49:59;;;;;;;3.35;0.50;;;25.80;86.20;;;;;;10292105;28;20042;-64
2022/07/29 09:55:08;;;;;;;3.53;0.50;;;25.90;87.00;;;;;;10287093;28;20406;-64
2022/07/29 10:00:17;;;;;;;4.82;0.80;;;26.20;85.80;;;;;;10289405;28;20046;-64
2022/07/29 10:05:24;;;;;;;1.67;0.57;;;26.10;85.40;;;;;;10288601;28;20074;-64
2022/07/29 10:10:28;;;;;;;2.22;0.50;;;26.20;84.60;;;;;;10278480;28;20057;-65
2022/07/29 10:15:32;;;;;;;1.15;0.40;;;26.40;84.80;;;;;;10278178;28;20051;-64
2022/07/29 10:20:35;;;;;;;1.85;0.68;;;26.50;83.20;;;;;;10269635;28;20067;-63
2022/07/29 10:25:37;;;;;;;1.88;0.60;;;26.50;82.50;;;;;;10262811;28;20066;-63
2022/07/29 10:30:40;;;;;;;3.13;0.60;;;26.80;82.20;;;;;;10266730;28;20463;-63
2022/07/29 10:36:23;;;;;;;2.88;0.50;;;26.80;82.80;;;;;;10265203;28;20051;-63
2022/07/29 10:42:00;;;;;;;1.08;0.63;;;26.90;83.30;;;;;;10257813;28;20173;-63
2022/07/29 10:47:04;;;;;;;2.65;0.47;;;27.10;80.70;;;;;;10265122;28;20055;-63
2022/07/29 10:52:09;;;;;;;5.85;0.55;;;27.50;79.80;;;;;;10278935;28;20053;-63
2022/07/29 10:57:20;;;;;;;2.53;0.47;;;27.70;80.20;;;;;;10256034;28;20051;-63
2022/07/29 11:02:32;;;;;;;2.45;0.60;;;28.30;80.90;;;;;;10272500;28;20042;-63
2022/07/29 11:08:21;;;;;;;2.08;0.50;;;28.70;78.60;;;;;;10268124;28;20095;-63
2022/07/29 11:13:43;;;;;;;1.05;0.50;;;29.00;76.80;;;;;;10230688;28;20115;-63
2022/07/29 11:19:22;;;;;;;3.50;0.50;;;29.30;74.50;;;;;;10315121;28;20057;-63
2022/07/29 11:24:32;;;;;;;5.32;0.60;;;28.80;74.80;;;;;;10223152;28;20456;-63
2022/07/29 11:29:52;;;;;;;4.05;0.57;;;29.20;75.70;;;;;;10313403;28;20142;-63
2022/07/29 11:35:15;;;;;;;3.17;0.55;;;29.50;72.90;;;;;;10315309;28;20073;-63
2022/07/29 11:40:19;;;;;;;1.17;0.70;;;29.50;73.40;;;;;;10315085;28;20053;-63
2022/07/29 11:45:27;;;;;;;4.40;0.68;;;29.80;73.50;;;;;;10313453;28;20054;-63
2022/07/29 11:50:46;;;;;;;2.00;0.50;;;29.70;73.20;;;;;;10313063;28;20144;-63
2022/07/29 11:55:55;;;;;;;1.95;0.50;;;29.60;73.60;;;;;;10314486;28;20078;-63
2022/07/29 12:00:59;;;;;;;1.02;0.55;;;29.90;71.80;;;;;;10314402;28;20117;-63
2022/07/29 12:06:15;;;;;;;3.20;0.60;;;30.10;72.80;;;;;;10311991;28;20057;-63
2022/07/29 12:11:20;;;;;;;1.85;0.70;;;30.40;70.90;;;;;;10266856;28;20055;-62
2022/07/29 12:16:37;;;;;;;1.38;0.68;;;30.50;71.10;;;;;;10269757;28;20401;-63
2022/07/29 12:21:48;;;;;;;1.45;0.60;;;30.50;69.90;;;;;;10267164;28;20749;-62
2022/07/29 12:26:58;;;;;;;2.65;0.60;;;30.70;70.40;;;;;;10265080;28;20726;-61
2022/07/29 12:32:00;;;;;;;2.92;0.45;;;30.90;71.40;;;;;;10268414;28;20053;-62
2022/07/29 12:37:03;;;;;;;1.02;0.50;;;30.90;71.80;;;;;;10271828;28;20153;-62
2022/07/29 12:42:15;;;;;;;3.10;0.60;;;30.80;69.10;;;;;;10271140;28;20054;-63
2022/07/29 12:47:20;;;;;;;1.15;0.50;;;30.30;69.70;;;;;;10267060;28;20063;-62
2022/07/29 12:52:30;;;;;;;1.70;0.60;;;30.40;70.10;;;;;;10266865;28;20055;-62
2022/07/29 12:57:32;;;;;;;0.75;0.50;;;30.60;71.80;;;;;;10263956;28;20118;-62
2022/07/29 13:02:34;;;;;;;1.17;0.55;;;31.10;70.10;;;;;;10262316;28;20047;-62
2022/07/29 13:07:38;;;;;;;3.50;1.35;;;31.00;69.20;;;;;;10260634;28;20050;-62
2022/07/29 13:13:09;;;;;;;2.67;0.70;;;30.60;69.40;;;;;;10269334;28;20501;-62
2022/07/29 13:18:31;;;;;;;3.72;0.75;;;30.60;67.90;;;;;;10264631;28;20050;-62
2022/07/29 13:23:33;;;;;;;3.50;0.50;;;30.90;68.70;;;;;;10256334;28;20051;-62
2022/07/29 13:28:39;;;;;;;7.20;0.68;;;30.90;67.90;;;;;;10248437;28;20051;-62
2022/07/29 13:33:44;;;;;;;1.00;0.70;;;31.20;68.40;;;;;;10269791;28;20105;-62
2022/07/29 13:38:46;;;;;;;1.80;0.60;;;31.60;65.80;;;;;;10259074;28;20132;-62
2022/07/29 13:43:48;;;;;;;3.88;0.57;;;31.90;65.50;;;;;;10232892;28;20447;-62
2022/07/29 13:48:50;;;;;;;4.40;0.88;;;32.20;64.20;;;;;;10251778;28;20050;-62
2022/07/29 13:53:52;;;;;;;2.33;0.70;;;32.30;64.80;;;;;;10263416;28;20091;-62
2022/07/29 13:58:54;;;;;;;4.30;0.80;;;31.90;64.00;;;;;;10237903;28;20047;-63
2022/07/29 14:03:56;;;;;;;3.15;0.85;;;32.30;62.70;;;;;;10264253;28;20069;-62
2022/07/29 14:08:57;;;;;;;1.58;0.88;;;32.10;63.50;;;;;;10280377;28;20058;-63
2022/07/29 14:13:59;;;;;;;4.47;0.73;;;32.10;63.80;;;;;;10290275;28;20104;-62
2022/07/29 14:19:01;;;;;;;0.68;0.40;;;31.90;64.50;;;;;;10303529;28;20047;-63
2022/07/29 14:24:03;;;;;;;2.90;0.60;;;31.50;64.80;;;;;;10293602;28;20069;-62
2022/07/29 14:29:17;;;;;;;1.17;0.50;;;30.80;68.40;;;;;;10281565;28;20038;-61
2022/07/29 14:34:19;;;;;;;2.78;0.45;;;29.90;71.70;;;;;;10302046;28;20057;-62
2022/07/29 14:39:22;;;;;;;2.40;0.70;;;29.40;73.90;;;;;;10286753;28;20053;-62
2022/07/29 14:44:29;;;;;;;3.05;0.68;;;28.60;76.60;;;;;;10285774;28;20105;-62
2022/07/29 14:49:31;;;;;;;3.00;0.90;;;27.90;79.10;;;;;;10298391;28;20046;-62
2022/07/29 14:54:32;;;;;;;0.98;0.80;;;27.30;82.40;;;;;;10280416;28;20055;-61
2022/07/29 14:59:34;;;;;;;5.80;1.00;;;26.70;88.70;;;;;;10277701;28;20521;-62
2022/07/29 15:04:36;;;;;;;2.58;0.93;;;26.60;91.20;;;;;;10290684;28;20050;-62
2022/07/29 15:09:38;;;;;;;0.73;0.68;;;25.90;93.00;;;;;;10299117;28;20061;-61
2022/07/29 15:14:50;;;;;;;2.08;0.50;;;25.90;90.50;;;;;;10310240;28;20050;-63
2022/07/29 15:19:52;;;;;;;1.65;0.50;;;26.20;86.80;;;;;;10316912;28;20046;-63
2022/07/29 15:24:53;;;;;;;1.92;0.40;;;26.50;87.60;;;;;;10306017;28;20062;-62
2022/07/29 15:29:55;;;;;;;2.00;0.52;;;26.60;84.10;;;;;;10285814;28;20050;-63
2022/07/29 15:34:56;;;;;;;0.75;0.40;;;26.80;83.20;;;;;;10282496;28;20379;-63
2022/07/29 15:39:58;;;;;;;4.00;0.50;;;27.00;81.50;;;;;;10297442;28;20054;-63
2022/07/29 15:45:02;;;;;;;0.85;0.52;;;27.30;82.10;;;;;;10294523;28;20433;-63
2022/07/29 15:50:06;;;;;;;3.33;0.60;;;27.10;82.30;;;;;;10281185;28;20061;-63
2022/07/29 15:55:09;;;;;;;3.72;0.65;;;27.10;83.00;;;;;;10294791;28;20042;-63
2022/07/29 16:00:11;;;;;;;2.20;0.70;;;27.20;84.10;;;;;;10299951;28;20054;-63
2022/07/29 16:05:13;;;;;;;1.48;0.60;;;27.00;84.80;;;;;;10296391;28;20050;-63
2022/07/29 16:10:14;;;;;;;4.05;0.73;;;26.70;85.50;;;;;;10295923;28;20058;-63
2022/07/29 16:15:16;;;;;;;2.75;0.60;;;26.70;85.70;;;;;;10305221;28;20046;-63
2022/07/29 16:20:19;;;;;;;2.67;0.82;;;26.50;85.70;;;;;;10291803;28;20126;-64
2022/07/29 16:25:22;;;;;;;1.08;0.57;;;26.50;86.50;;;;;;10304759;28;20556;-63
2022/07/29 16:30:44;;;;;;;2.35;0.52;;;26.40;86.80;;;;;;10312975;28;20408;-66
2022/07/29 16:35:46;;;;;;;4.43;0.80;;;26.30;87.50;;;;;;10307011;28;20445;-66
2022/07/29 16:40:47;;;;;;;1.88;0.90;;;26.40;88.70;;;;;;10301911;28;20062;-67
2022/07/29 16:45:49;;;;;;;2.75;1.25;;;26.50;91.20;;;;;;10301562;28;20066;-67
2022/07/29 16:50:51;;;;;;;1.60;0.90;;;27.00;91.50;;;;;;10302708;28;20379;-68
2022/07/29 16:55:53;;;;;;;8.20;1.48;;;27.60;90.80;;;;;;10303280;28;20047;-68
2022/07/29 17:00:55;;;;;;;5.38;1.45;;;27.80;90.20;;;;;;10303637;28;20051;-67
2022/07/29 17:05:56;;;;;;;11.65;1.67;;;28.30;89.70;;;;;;10305097;28;20050;-67
2022/07/29 17:10:58;;;;;;;2.13;1.55;;;28.40;89.00;;;;;;10255260;28;20047;-68
2022/07/29 17:16:00;;;;;;;5.18;1.40;;;27.90;88.40;;;;;;10263483;28;20398;-67
2022/07/29 17:21:02;;;;;;;5.82;2.05;;;27.40;89.40;;;;;;10263728;28;20055;-70
2022/07/29 17:26:03;;;;;;;6.20;1.70;;;26.90;90.10;;;;;;10253194;28;20426;-64
2022/07/29 17:31:05;;;;;;;2.30;1.10;;;26.40;91.20;;;;;;10259532;28;20665;-63
2022/07/29 17:36:22;;;;;;;3.20;1.10;;;26.20;91.80;;;;;;10264689;28;20134;-63
2022/07/29 17:41:24;;;;;;;2.97;1.42;;;25.90;92.20;;;;;;10264590;28;20050;-63
2022/07/29 17:46:26;;;;;;;2.03;1.48;;;25.60;92.90;;;;;;10253338;28;20117;-63
2022/07/29 17:51:28;;;;;;;3.38;1.27;;;25.50;93.50;;;;;;10262502;28;20043;-63
2022/07/29 17:56:30;;;;;;;2.45;1.42;;;25.30;93.80;;;;;;10253888;28;20407;-63
2022/07/29 18:01:32;;;;;;;3.55;1.13;;;25.20;94.00;;;;;;10255707;28;20043;-63
2022/07/29 18:06:34;;;;;;;3.40;1.33;;;24.80;94.90;;;;;;10255415;28;20051;-63
2022/07/29 18:11:35;;;;;;;2.05;1.02;;;24.70;94.80;;;;;;10256343;28;20046;-63
2022/07/29 18:16:39;;;;;;;1.20;1.00;;;24.40;95.50;;;;;;10299798;28;20141;-63
2022/07/29 18:21:41;;;;;;;1.95;1.55;;;24.50;96.20;;;;;;10313429;28;20052;-63
2022/07/29 18:26:55;;;;;;;3.55;0.90;;;24.40;96.80;;;;;;10315695;28;20046;-63
2022/07/29 18:31:58;;;;;;;2.60;0.88;;;24.30;96.70;;;;;;10312851;28;20066;-63
2022/07/29 18:37:00;;;;;;;4.47;1.02;;;23.90;96.80;;;;;;10312487;28;20061;-63
2022/07/29 18:42:02;;;;;;;2.83;1.13;;;23.70;97.60;;;;;;10295113;28;20075;-63
2022/07/29 18:47:04;;;;;;;3.55;1.17;;;23.50;98.20;;;;;;10298780;28;20054;-62
2022/07/29 18:52:07;;;;;;;2.33;1.30;;;23.50;98.90;;;;;;10316784;28;20050;-63
2022/07/29 18:57:08;;;;;;;2.47;0.75;;;23.50;99.20;;;;;;10312156;28;20049;-63
2022/07/29 19:02:30;;;;;;;2.72;0.80;;;23.30;99.50;;;;;;10307041;28;20146;-63
2022/07/29 19:07:32;;;;;;;2.03;1.23;;;23.20;99.90;;;;;;10292608;28;20086;-63
2022/07/29 19:12:34;;;;;;;3.15;1.13;;;23.20;99.90;;;;;;10258224;28;20118;-63
2022/07/29 19:17:36;;;;;;;7.95;1.38;;;23.00;99.90;;;;;;10259848;28;20534;-58
2022/07/29 19:22:38;;;;;;;3.63;1.20;;;23.00;99.90;;;;;;10267150;28;20050;-58
2022/07/29 19:27:40;;;;;;;6.57;1.45;;;22.90;99.90;;;;;;10253716;28;20047;-58
2022/07/29 19:32:41;;;;;;;3.25;1.50;;;22.90;99.90;;;;;;10262743;28;20055;-59
2022/07/29 19:37:43;;;;;;;2.78;1.27;;;22.80;99.90;;;;;;10273478;28;20059;-59
2022/07/29 19:42:47;;;;;;;2.50;1.10;;;22.70;99.90;;;;;;10271403;28;20085;-58
2022/07/29 19:47:48;;;;;;;4.50;1.10;;;22.70;99.90;;;;;;10273886;28;20043;-59
2022/07/29 19:52:51;;;;;;;4.35;0.98;;;22.60;99.90;;;;;;10268993;28;20082;-58
2022/07/29 19:57:53;;;;;;;2.03;1.10;;;22.50;99.90;;;;;;10252920;28;20073;-59
2022/07/29 20:02:56;;;;;;;2.65;1.20;;;22.60;99.90;;;;;;10270116;28;20409;-58
2022/07/29 20:07:58;;;;;;;2.60;1.10;;;22.50;99.90;;;;;;10270916;28;20478;-58
2022/07/29 20:12:59;;;;;;;1.95;1.02;;;22.40;99.90;;;;;;10291518;28;20656;-59
2022/07/29 20:18:01;;;;;;;1.40;0.90;;;22.40;99.90;;;;;;10305288;28;20058;-58
2022/07/29 20:23:03;;;;;;;3.90;1.00;;;22.40;99.90;;;;;;10297490;28;20046;-59
2022/07/29 20:28:06;;;;;;;2.70;1.02;;;22.40;99.90;;;;;;10301260;28;20117;-59
2022/07/29 20:33:08;;;;;;;2.15;1.30;;;22.30;99.90;;;;;;10300144;28;20054;-59
2022/07/29 20:38:09;;;;;;;1.27;0.93;;;22.10;99.90;;;;;;10289909;28;20128;-58
2022/07/29 20:43:16;;;;;;;3.38;1.30;;;22.00;99.90;;;;;;10306707;28;20047;-59
2022/07/29 20:48:18;;;;;;;2.42;0.90;;;22.00;99.90;;;;;;10296288;28;20042;-59
2022/07/29 20:53:20;;;;;;;2.17;1.30;;;21.90;99.90;;;;;;10280016;28;20113;-60
2022/07/29 20:58:22;;;;;;;2.50;1.58;;;21.90;99.90;;;;;;10272604;28;20047;-58
2022/07/29 21:03:24;;;;;;;2.05;0.98;;;21.90;99.90;;;;;;10308417;28;20038;-59
2022/07/29 21:08:26;;;;;;;1.08;0.90;;;21.90;99.90;;;;;;10294957;28;20043;-59
2022/07/29 21:13:27;;;;;;;1.42;0.80;;;21.80;99.90;;;;;;10288949;28;20120;-58
2022/07/29 21:18:29;;;;;;;2.67;1.20;;;21.80;99.90;;;;;;10289121;28;20108;-58
2022/07/29 21:23:34;;;;;;;1.67;0.95;;;21.80;99.90;;;;;;10301395;28;20453;-58
2022/07/29 21:28:38;;;;;;;4.18;1.35;;;21.80;99.90;;;;;;10300084;28;20067;-59
2022/07/29 21:33:43;;;;;;;1.63;1.00;;;21.60;99.90;;;;;;10301311;28;20104;-59
2022/07/29 21:38:44;;;;;;;1.50;0.90;;;21.60;99.90;;;;;;10298873;28;20087;-58
2022/07/29 21:43:46;;;;;;;1.42;1.05;;;21.50;99.90;;;;;;10286047;28;20047;-58
2022/07/29 21:48:48;;;;;;;1.98;1.73;;;21.40;99.90;;;;;;10294003;28;20054;-58
2022/07/29 21:53:49;;;;;;;1.27;1.13;;;21.30;99.90;;;;;;10302805;28;20058;-58
2022/07/29 21:58:54;;;;;;;4.20;1.52;;;21.20;99.90;;;;;;10285052;28;20070;-59
2022/07/29 22:03:56;;;;;;;3.63;1.67;;;21.10;99.90;;;;;;10280974;28;20043;-58
2022/07/29 22:08:57;;;;;;;2.50;1.38;;;21.10;99.90;;;;;;10270145;28;20218;-59
2022/07/29 22:13:59;;;;;;;3.15;1.42;;;21.00;99.90;;;;;;10261716;28;20050;-59
2022/07/29 22:19:02;;;;;;;3.88;2.50;;;21.00;99.90;;;;;;10256574;28;20670;-59
2022/07/29 22:24:04;;;;;;;2.38;1.70;;;20.90;99.90;;;;;;10265754;28;20047;-59
2022/07/29 22:29:06;;;;;;;4.60;1.92;;;20.70;99.90;;;;;;10267061;28;20490;-59
2022/07/29 22:34:11;;;;;;;3.03;1.77;;;20.60;99.90;;;;;;10254819;28;20051;-58
2022/07/29 22:39:13;;;;;;;2.70;1.58;;;20.60;99.90;;;;;;10256326;28;20402;-58
2022/07/29 22:44:16;;;;;;;4.82;1.30;;;20.50;99.90;;;;;;10265873;28;20046;-59
2022/07/29 22:49:19;;;;;;;2.60;1.33;;;20.40;99.90;;;;;;10266841;28;20050;-59
2022/07/29 22:54:20;;;;;;;4.65;1.67;;;20.20;99.90;;;;;;10262794;28;20212;-59
2022/07/29 22:59:22;;;;;;;2.75;1.30;;;20.20;99.90;;;;;;10268225;28;20054;-59
2022/07/29 23:04:24;;;;;;;5.75;1.92;;;20.00;99.90;;;;;;10259515;28;20047;-59
2022/07/29 23:09:26;;;;;;;3.65;2.10;;;19.90;99.90;;;;;;10284399;28;20460;-59
2022/07/29 23:14:27;;;;;;;8.27;2.35;;;19.90;99.90;;;;;;10289552;28;20066;-59
2022/07/29 23:19:29;;;;;;;2.30;1.65;;;19.90;99.90;;;;;;10300159;28;20047;-59
2022/07/29 23:24:31;;;;;;;4.95;1.98;;;19.90;99.90;;;;;;10295308;28;20452;-59
2022/07/29 23:29:32;;;;;;;3.92;1.63;;;19.90;99.90;;;;;;10299955;28;20058;-59
2022/07/29 23:34:37;;;;;;;4.35;2.00;;;19.80;99.90;;;;;;10292053;28;20442;-59
2022/07/29 23:39:39;;;;;;;6.00;1.73;;;19.70;99.90;;;;;;10297922;28;20463;-59
2022/07/29 23:44:40;;;;;;;2.83;1.98;;;19.60;99.90;;;;;;10301033;28;20186;-57
2022/07/29 23:49:42;;;;;;;4.97;1.70;;;19.50;99.90;;;;;;10293741;28;20057;-58
2022/07/29 23:54:44;;;;;;;8.48;2.15;;;19.50;99.90;;;;;;10287121;28;20382;-58
2022/07/29 23:59:46;;;;;;;2.58;1.35;;;19.50;99.90;;;;;;10304005;28;20066;-58
